Time;durP1;ratioP1;P1;durP2;ratioP2;P2;SDS_P1;SDS_P2;PMS_P1;PMS_P2;Temp;Humidity;BMP_temperature;BMP_pressure;BME280_temperature;BME280_humidity;BME280_pressure;Samples;Min_cycle;Max_cycle;Signal;HPM_P1;HPM_P2
2023/01/01 00:02:06;;;;;;;138.63;69.47;;;12.80;99.90;;;;;;4986202;28;20478;-66
2023/01/01 00:04:33;;;;;;;128.32;63.60;;;12.80;99.90;;;;;;4988303;28;20042;-69
2023/01/01 00:06:59;;;;;;;124.25;64.57;;;12.80;99.90;;;;;;4997877;28;20034;-67
2023/01/01 00:12:09;;;;;;;127.45;63.50;;;12.80;99.90;;;;;;4991057;28;20108;-69
2023/01/01 00:14:35;;;;;;;131.48;66.28;;;12.80;99.90;;;;;;5000953;28;20505;-69
2023/01/01 00:17:01;;;;;;;126.18;57.65;;;12.80;99.90;;;;;;4991934;28;20042;-67
2023/01/01 00:19:26;;;;;;;121.82;60.38;;;12.70;99.90;;;;;;4998491;28;20667;-68
2023/01/01 00:21:52;;;;;;;111.20;53.60;;;12.70;99.90;;;;;;4987784;28;20050;-69
2023/01/01 00:24:18;;;;;;;102.95;48.15;;;12.70;99.90;;;;;;4991368;28;20173;-66
2023/01/01 00:26:44;;;;;;;106.03;51.28;;;12.70;99.90;;;;;;4989008;28;20041;-67
2023/01/01 00:29:09;;;;;;;102.03;49.88;;;12.70;99.90;;;;;;4990124;28;20087;-71
2023/01/01 00:31:35;;;;;;;100.20;50.15;;;12.70;99.90;;;;;;4986490;28;20041;-67
2023/01/01 00:34:01;;;;;;;98.63;46.28;;;12.70;99.90;;;;;;4988213;28;20042;-69
2023/01/01 00:36:27;;;;;;;100.45;46.38;;;12.60;99.90;;;;;;4985881;28;20425;-69
2023/01/01 00:38:53;;;;;;;86.40;43.90;;;12.70;99.90;;;;;;4988299;28;20041;-65
2023/01/01 00:41:19;;;;;;;96.25;43.10;;;12.70;99.90;;;;;;5000558;28;20129;-65
2023/01/01 00:43:45;;;;;;;90.00;43.55;;;12.70;99.90;;;;;;4991163;28;20116;-70
2023/01/01 00:46:11;;;;;;;94.22;44.58;;;12.70;99.90;;;;;;4986216;28;20468;-66
2023/01/01 00:48:37;;;;;;;92.85;43.15;;;12.70;99.90;;;;;;4992040;28;20685;-69
2023/01/01 00:51:03;;;;;;;97.55;44.67;;;12.80;99.90;;;;;;4986772;28;20238;-67
2023/01/01 00:53:29;;;;;;;93.28;42.83;;;12.70;99.90;;;;;;4982913;28;20399;-66
2023/01/01 00:55:55;;;;;;;95.05;44.63;;;12.80;99.90;;;;;;5005002;28;20040;-68
2023/01/01 00:58:22;;;;;;;99.03;46.80;;;12.70;99.90;;;;;;4984732;28;20046;-68
2023/01/01 01:00:50;;;;;;;87.28;43.45;;;12.80;99.90;;;;;;4981310;28;20797;-72
2023/01/01 01:03:27;;;;;;;85.60;41.22;;;12.90;99.90;;;;;;4984670;28;20081;-67
2023/01/01 01:05:58;;;;;;;94.93;45.88;;;12.90;99.90;;;;;;4985343;28;20041;-66
2023/01/01 01:08:24;;;;;;;98.40;46.50;;;12.90;99.90;;;;;;4981039;28;20427;-68
2023/01/01 01:10:50;;;;;;;103.80;49.22;;;12.90;99.90;;;;;;4985930;28;20045;-67
2023/01/01 01:13:16;;;;;;;92.28;43.55;;;12.90;99.90;;;;;;4986172;28;20133;-70
2023/01/01 01:15:41;;;;;;;94.60;45.63;;;12.90;99.90;;;;;;4968125;28;20575;-71
2023/01/01 01:18:07;;;;;;;89.72;44.08;;;12.90;99.90;;;;;;4985867;28;20044;-67
2023/01/01 01:20:33;;;;;;;89.65;40.05;;;12.90;99.90;;;;;;4987589;28;20057;-69
2023/01/01 01:22:58;;;;;;;83.38;40.30;;;12.90;99.90;;;;;;4990517;28;20480;-69
2023/01/01 01:25:24;;;;;;;85.43;42.40;;;13.00;99.90;;;;;;4985164;28;20040;-73
2023/01/01 01:27:49;;;;;;;84.28;40.80;;;13.00;99.90;;;;;;4989452;28;20068;-69
2023/01/01 01:30:15;;;;;;;94.05;42.95;;;13.00;99.90;;;;;;4986770;28;20092;-67
2023/01/01 01:32:40;;;;;;;81.57;40.50;;;13.00;99.90;;;;;;4987482;28;20515;-65
2023/01/01 01:35:06;;;;;;;84.75;38.65;;;12.90;99.90;;;;;;4967232;28;20111;-70
2023/01/01 01:37:32;;;;;;;77.65;38.63;;;12.90;99.90;;;;;;4987134;28;20049;-66
2023/01/01 01:39:58;;;;;;;81.85;37.15;;;12.90;99.90;;;;;;4984574;28;20042;-66
2023/01/01 01:42:23;;;;;;;77.20;35.05;;;12.90;99.90;;;;;;4986059;28;20038;-68
2023/01/01 01:44:52;;;;;;;71.55;35.83;;;13.00;99.90;;;;;;4984057;28;20129;-67
2023/01/01 01:47:41;;;;;;;73.65;35.30;;;12.90;99.90;;;;;;5007465;28;20052;-68
2023/01/01 01:50:12;;;;;;;64.60;33.78;;;12.90;99.90;;;;;;4988518;28;20053;-73
2023/01/01 01:52:41;;;;;;;66.22;31.55;;;12.90;99.90;;;;;;4993114;28;20451;-67
2023/01/01 01:55:08;;;;;;;73.50;32.58;;;12.90;99.90;;;;;;4992554;28;20608;-71
2023/01/01 01:57:35;;;;;;;67.30;29.60;;;12.90;99.90;;;;;;4989124;28;20400;-68
2023/01/01 02:00:01;;;;;;;62.80;29.40;;;12.90;99.90;;;;;;4992631;28;20378;-69
2023/01/01 02:02:35;;;;;;;69.63;31.35;;;12.90;99.90;;;;;;4992337;28;20405;-67
2023/01/01 02:05:01;;;;;;;62.35;30.23;;;12.90;99.90;;;;;;4986083;28;20053;-68
2023/01/01 02:07:30;;;;;;;68.07;28.60;;;12.90;99.90;;;;;;4989085;28;20044;-66
2023/01/01 02:09:56;;;;;;;70.68;29.38;;;12.90;99.90;;;;;;4991523;28;20393;-65
2023/01/01 02:12:23;;;;;;;60.88;26.23;;;12.80;99.90;;;;;;5006267;28;20103;-67
2023/01/01 02:14:48;;;;;;;63.78;26.83;;;12.80;99.90;;;;;;4986276;28;20124;-66
2023/01/01 02:17:41;;;;;;;58.05;23.88;;;12.80;99.90;;;;;;4986384;28;20133;-67
2023/01/01 02:20:18;;;;;;;54.35;23.25;;;12.80;99.90;;;;;;4985295;28;20034;-65
2023/01/01 02:23:22;;;;;;;55.88;23.33;;;12.80;99.90;;;;;;4986119;28;20042;-67
2023/01/01 02:26:05;;;;;;;54.70;21.88;;;12.90;99.90;;;;;;4987390;28;20049;-67
2023/01/01 02:29:00;;;;;;;54.55;22.05;;;12.90;99.90;;;;;;4988713;28;20038;-67
2023/01/01 02:31:32;;;;;;;51.42;20.35;;;12.80;99.90;;;;;;4984908;28;20436;-65
2023/01/01 02:34:02;;;;;;;50.85;21.05;;;12.80;99.90;;;;;;4987819;28;20128;-69
2023/01/01 02:36:31;;;;;;;46.55;19.08;;;12.80;99.90;;;;;;4980033;28;20571;-65
2023/01/01 02:39:00;;;;;;;45.35;18.35;;;12.80;99.90;;;;;;4985292;28;20103;-67
2023/01/01 02:41:33;;;;;;;54.20;19.48;;;12.80;99.90;;;;;;5002828;28;20034;-67
2023/01/01 02:43:59;;;;;;;44.53;18.98;;;12.80;99.90;;;;;;5004606;28;20400;-67
2023/01/01 02:46:33;;;;;;;37.92;16.23;;;12.70;99.90;;;;;;4983813;28;20034;-68
2023/01/01 02:48:59;;;;;;;39.97;14.93;;;12.80;99.90;;;;;;4984555;28;20041;-73
2023/01/01 02:51:46;;;;;;;43.13;14.23;;;12.80;99.90;;;;;;4986261;28;20042;-67
2023/01/01 02:54:16;;;;;;;36.65;11.70;;;12.80;99.90;;;;;;4986210;28;20393;-71
2023/01/01 02:56:55;;;;;;;34.30;11.35;;;12.80;99.90;;;;;;4982707;28;20132;-67
2023/01/01 03:02:50;;;;;;;26.15;8.63;;;13.00;99.90;;;;;;4985603;28;20131;-64
2023/01/01 03:09:03;;;;;;;27.02;7.90;;;13.20;99.90;;;;;;4999592;28;20052;-70
2023/01/01 03:11:51;;;;;;;21.80;7.00;;;13.30;99.90;;;;;;4985289;28;20344;-66
2023/01/01 03:15:01;;;;;;;25.25;7.07;;;13.30;99.90;;;;;;4994311;28;20534;-68
2023/01/01 03:18:23;;;;;;;21.70;7.72;;;13.30;99.90;;;;;;5001717;28;20065;-68
2023/01/01 03:20:53;;;;;;;21.27;6.25;;;13.30;99.90;;;;;;4956515;28;20405;-70
2023/01/01 03:23:25;;;;;;;21.10;6.88;;;13.30;99.90;;;;;;4984632;28;20180;-66
2023/01/01 03:25:56;;;;;;;;;;;13.40;99.90;;;;;;4986130;28;20045;-72
2023/01/01 03:28:27;;;;;;;20.38;5.32;;;13.40;99.90;;;;;;4985580;28;20372;-66
2023/01/01 03:30:55;;;;;;;24.60;5.85;;;13.40;99.90;;;;;;4985349;28;20040;-67
2023/01/01 03:33:37;;;;;;;13.80;5.93;;;13.50;99.90;;;;;;4982730;28;20473;-68
2023/01/01 03:36:08;;;;;;;;;;;13.50;99.90;;;;;;4987002;28;20217;-66
2023/01/01 03:38:48;;;;;;;18.90;5.43;;;13.50;99.90;;;;;;4984152;28;19928;-66
2023/01/01 03:41:36;;;;;;;17.70;5.10;;;13.50;99.90;;;;;;4999378;28;20100;-66
2023/01/01 03:44:13;;;;;;;21.42;6.20;;;13.60;99.90;;;;;;4985717;28;20050;-67
2023/01/01 03:46:39;;;;;;;19.33;5.57;;;13.50;99.90;;;;;;4984162;28;20381;-65
2023/01/01 03:49:09;;;;;;;20.50;5.47;;;13.60;99.90;;;;;;4986603;28;20033;-67
2023/01/01 03:51:34;;;;;;;16.00;5.65;;;13.50;99.90;;;;;;4999747;28;20037;-70
2023/01/01 03:54:07;;;;;;;20.35;5.05;;;13.50;99.90;;;;;;4985480;28;20037;-69
2023/01/01 03:56:51;;;;;;;22.77;5.35;;;13.50;99.90;;;;;;4982478;28;20094;-65
2023/01/01 04:00:04;;;;;;;17.25;5.05;;;13.50;99.90;;;;;;4986376;28;20060;-67
2023/01/01 04:02:41;;;;;;;18.33;5.55;;;13.50;99.90;;;;;;4968770;28;20081;-69
2023/01/01 04:05:09;;;;;;;19.58;5.53;;;13.50;99.90;;;;;;4986636;28;20057;-66
2023/01/01 04:07:35;;;;;;;13.20;4.20;;;13.50;99.90;;;;;;4984722;28;20459;-71
2023/01/01 04:10:15;;;;;;;14.68;4.40;;;13.50;99.90;;;;;;4987676;28;20659;-71
2023/01/01 04:12:49;;;;;;;18.27;4.60;;;13.50;99.90;;;;;;4998580;28;20456;-67
2023/01/01 04:15:20;;;;;;;16.63;5.38;;;13.50;99.90;;;;;;4983857;28;20076;-66
2023/01/01 04:17:46;;;;;;;16.63;4.70;;;13.50;99.90;;;;;;4983969;28;20065;-68
2023/01/01 04:20:13;;;;;;;19.35;4.97;;;13.50;99.90;;;;;;4982767;28;20042;-65
2023/01/01 04:22:39;;;;;;;12.30;4.68;;;13.40;99.90;;;;;;4984565;28;20084;-70
2023/01/01 04:25:05;;;;;;;14.60;4.15;;;13.40;99.90;;;;;;4984276;28;20045;-66
2023/01/01 04:27:31;;;;;;;15.30;4.72;;;13.40;99.90;;;;;;4983055;28;20041;-69
2023/01/01 04:29:57;;;;;;;15.45;4.45;;;13.40;99.90;;;;;;4986533;28;20243;-69
2023/01/01 04:32:23;;;;;;;16.85;4.68;;;13.40;99.90;;;;;;4983180;28;20484;-67
2023/01/01 04:34:48;;;;;;;17.23;4.75;;;13.40;99.90;;;;;;4986037;28;20065;-68
2023/01/01 04:37:14;;;;;;;12.50;4.78;;;13.50;99.90;;;;;;4984710;28;20037;-68
2023/01/01 04:39:40;;;;;;;14.80;3.58;;;13.50;99.90;;;;;;4983490;28;20046;-70
2023/01/01 04:42:06;;;;;;;12.15;3.45;;;13.50;99.90;;;;;;4983988;28;20045;-68
2023/01/01 04:44:32;;;;;;;15.68;4.07;;;13.50;99.90;;;;;;4983350;28;20057;-69
2023/01/01 04:46:57;;;;;;;16.92;4.45;;;13.50;99.90;;;;;;4983762;28;20042;-67
2023/01/01 04:49:23;;;;;;;17.10;3.55;;;13.40;99.90;;;;;;5002708;28;20030;-65
2023/01/01 04:51:48;;;;;;;14.32;4.00;;;13.40;99.90;;;;;;4984781;28;20041;-67
2023/01/01 04:54:14;;;;;;;16.65;4.38;;;13.40;99.90;;;;;;4986236;28;20072;-65
2023/01/01 04:56:40;;;;;;;16.15;3.80;;;13.50;99.90;;;;;;4984126;28;20049;-67
2023/01/01 04:59:05;;;;;;;13.70;3.88;;;13.50;99.90;;;;;;4983293;28;20049;-67
2023/01/01 05:01:31;;;;;;;13.43;3.80;;;13.50;99.90;;;;;;4983811;28;20050;-70
2023/01/01 05:03:58;;;;;;;13.63;3.42;;;13.50;99.90;;;;;;4986247;28;20038;-65
2023/01/01 05:06:24;;;;;;;11.60;4.20;;;13.40;99.90;;;;;;5001445;28;20044;-70
2023/01/01 05:08:55;;;;;;;16.58;3.65;;;13.30;99.90;;;;;;4999971;28;20049;-64
2023/01/01 05:11:23;;;;;;;13.40;2.80;;;13.30;99.90;;;;;;4984403;28;20077;-68
2023/01/01 05:13:51;;;;;;;12.70;3.42;;;13.30;99.90;;;;;;4984852;28;20050;-70
2023/01/01 05:16:20;;;;;;;12.07;3.15;;;13.20;99.90;;;;;;4981807;28;20073;-68
2023/01/01 05:18:46;;;;;;;12.52;3.17;;;13.30;99.90;;;;;;4995547;28;20400;-68
2023/01/01 05:21:20;;;;;;;10.70;2.40;;;13.30;99.90;;;;;;4984624;28;20065;-68
2023/01/01 05:23:46;;;;;;;14.00;2.92;;;13.20;99.90;;;;;;4984548;28;20124;-71
2023/01/01 05:26:14;;;;;;;9.82;2.75;;;13.20;99.90;;;;;;4992378;28;20038;-65
2023/01/01 05:28:40;;;;;;;11.77;2.70;;;13.10;99.90;;;;;;4992031;28;20140;-65
2023/01/01 05:31:12;;;;;;;11.38;2.83;;;13.20;99.90;;;;;;4990868;28;20038;-70
2023/01/01 05:33:38;;;;;;;10.95;2.95;;;13.10;99.90;;;;;;4991177;28;20034;-66
2023/01/01 05:36:06;;;;;;;8.98;2.45;;;13.00;99.90;;;;;;5008550;28;20057;-68
2023/01/01 05:38:31;;;;;;;8.48;2.45;;;13.00;99.90;;;;;;4988932;28;20392;-67
2023/01/01 05:40:57;;;;;;;13.23;2.47;;;13.00;99.90;;;;;;4988503;28;20047;-69
2023/01/01 05:43:23;;;;;;;11.57;2.97;;;12.90;99.90;;;;;;4990626;28;20536;-67
2023/01/01 05:45:57;;;;;;;10.38;2.28;;;12.80;99.90;;;;;;4990454;28;20065;-67
2023/01/01 05:48:23;;;;;;;12.32;2.63;;;12.70;99.90;;;;;;4987100;28;20050;-67
2023/01/01 05:50:49;;;;;;;12.68;2.30;;;12.70;99.90;;;;;;4991008;28;20052;-69
2023/01/01 05:53:14;;;;;;;9.30;2.47;;;12.70;99.90;;;;;;4987702;28;20089;-70
2023/01/01 05:55:40;;;;;;;9.63;2.40;;;12.60;99.90;;;;;;4991657;28;20045;-69
2023/01/01 05:58:05;;;;;;;10.23;2.28;;;12.50;99.90;;;;;;4992830;28;20508;-67
2023/01/01 06:00:31;;;;;;;7.80;2.10;;;12.50;99.90;;;;;;4990578;28;20756;-68
2023/01/01 06:02:56;;;;;;;8.38;3.47;;;12.40;99.90;;;;;;4987625;28;20911;-66
2023/01/01 06:05:22;;;;;;;16.95;2.45;;;12.40;99.90;;;;;;4990852;28;20072;-67
2023/01/01 06:07:47;;;;;;;6.68;2.13;;;12.40;99.90;;;;;;4990949;28;20120;-67
2023/01/01 06:10:13;;;;;;;10.85;2.42;;;12.40;99.90;;;;;;4991858;28;20038;-66
2023/01/01 06:12:38;;;;;;;16.58;2.15;;;12.30;99.90;;;;;;4991535;28;20504;-66
2023/01/01 06:15:05;;;;;;;7.47;2.15;;;12.30;99.90;;;;;;4991772;28;20050;-67
2023/01/01 06:17:32;;;;;;;8.88;2.00;;;12.30;99.90;;;;;;4992923;28;20049;-67
2023/01/01 06:19:58;;;;;;;9.05;2.45;;;12.30;99.90;;;;;;4989151;28;20046;-71
2023/01/01 06:22:23;;;;;;;12.98;2.55;;;12.30;99.90;;;;;;4990056;28;20052;-68
2023/01/01 06:24:49;;;;;;;14.82;2.58;;;12.30;99.90;;;;;;4990049;28;20042;-68
2023/01/01 06:27:14;;;;;;;10.30;3.05;;;12.20;99.90;;;;;;4990340;28;20042;-66
2023/01/01 06:29:40;;;;;;;7.50;3.08;;;12.20;99.90;;;;;;4992970;28;20084;-70
2023/01/01 06:32:05;;;;;;;12.07;2.67;;;12.10;99.90;;;;;;4988198;28;20042;-66
2023/01/01 06:34:31;;;;;;;14.05;3.80;;;12.10;99.90;;;;;;4990840;28;20046;-70
2023/01/01 06:36:57;;;;;;;16.95;2.85;;;12.10;99.90;;;;;;5004815;28;20580;-71
2023/01/01 06:39:22;;;;;;;19.33;2.70;;;12.10;99.90;;;;;;5002231;28;20054;-70
2023/01/01 06:41:48;;;;;;;14.10;2.70;;;12.10;99.90;;;;;;4986688;28;20050;-71
2023/01/01 06:44:13;;;;;;;14.48;2.95;;;12.10;99.90;;;;;;5002725;28;20125;-67
2023/01/01 06:46:39;;;;;;;15.55;2.95;;;12.20;99.90;;;;;;4989940;28;20034;-65
2023/01/01 06:49:09;;;;;;;14.40;2.67;;;12.20;99.90;;;;;;5002732;28;20042;-70
2023/01/01 06:51:40;;;;;;;14.40;2.92;;;12.20;99.90;;;;;;4985866;28;20046;-68
2023/01/01 06:54:07;;;;;;;18.73;2.92;;;12.20;99.90;;;;;;4987640;28;20052;-70
2023/01/01 06:56:33;;;;;;;15.43;3.45;;;12.10;99.90;;;;;;4989131;28;20045;-70
2023/01/01 06:58:59;;;;;;;14.80;3.15;;;12.10;99.90;;;;;;4985559;28;20388;-72
2023/01/01 07:01:28;;;;;;;15.45;2.78;;;12.00;99.90;;;;;;4986514;28;20061;-72
2023/01/01 07:03:56;;;;;;;17.02;3.10;;;12.10;99.90;;;;;;4987472;28;20040;-71
2023/01/01 07:06:23;;;;;;;13.93;2.55;;;12.00;99.90;;;;;;4984650;28;20042;-71
2023/01/01 07:08:49;;;;;;;11.05;2.20;;;12.00;99.90;;;;;;4982525;28;20121;-67
2023/01/01 07:11:16;;;;;;;12.82;2.03;;;12.00;99.90;;;;;;4985643;28;20508;-70
2023/01/01 07:13:41;;;;;;;19.38;2.88;;;12.00;99.90;;;;;;4983351;28;20493;-69
2023/01/01 07:16:07;;;;;;;12.60;3.40;;;12.00;99.90;;;;;;4986472;28;20102;-71
2023/01/01 07:18:33;;;;;;;12.52;2.50;;;11.90;99.90;;;;;;4987651;28;20145;-66
2023/01/01 07:21:01;;;;;;;13.75;2.53;;;12.00;99.90;;;;;;4988083;28;20041;-70
2023/01/01 07:23:28;;;;;;;14.60;2.10;;;11.90;99.90;;;;;;4981145;28;20092;-70
2023/01/01 07:25:54;;;;;;;17.25;2.38;;;11.90;99.90;;;;;;4987708;28;20376;-69
2023/01/01 07:28:21;;;;;;;19.45;2.65;;;12.00;99.90;;;;;;4985512;28;20021;-67
2023/01/01 07:30:47;;;;;;;16.70;2.58;;;11.90;99.90;;;;;;4985798;28;20195;-72
2023/01/01 07:33:15;;;;;;;15.90;2.95;;;11.90;99.90;;;;;;4986492;28;20046;-69
2023/01/01 07:35:41;;;;;;;15.05;2.60;;;11.90;99.90;;;;;;5005112;28;20410;-69
2023/01/01 07:38:07;;;;;;;16.17;2.40;;;11.90;99.90;;;;;;4986989;28;20037;-67
2023/01/01 07:40:32;;;;;;;13.02;2.30;;;11.90;99.90;;;;;;4998236;28;20389;-72
2023/01/01 07:42:58;;;;;;;15.30;2.42;;;11.90;99.90;;;;;;5001618;28;20038;-67
2023/01/01 07:45:24;;;;;;;13.90;2.20;;;11.80;99.90;;;;;;5003844;28;20106;-64
2023/01/01 07:47:55;;;;;;;11.95;2.10;;;11.80;99.90;;;;;;4985611;28;20503;-67
2023/01/01 07:50:22;;;;;;;12.32;2.33;;;11.70;99.90;;;;;;4987322;28;20085;-73
2023/01/01 07:52:47;;;;;;;15.07;2.25;;;11.70;99.90;;;;;;5002152;28;20057;-70
2023/01/01 07:55:15;;;;;;;11.20;1.98;;;11.70;99.90;;;;;;4986394;28;20045;-68
2023/01/01 07:57:41;;;;;;;18.00;2.40;;;11.70;99.90;;;;;;4986331;28;20061;-69
2023/01/01 08:00:08;;;;;;;13.25;2.20;;;11.70;99.90;;;;;;4983471;28;20057;-67
2023/01/01 08:02:34;;;;;;;18.10;2.20;;;11.70;99.90;;;;;;4979872;28;20046;-68
2023/01/01 08:05:00;;;;;;;10.55;1.85;;;11.60;99.90;;;;;;5001554;28;20088;-69
2023/01/01 08:07:25;;;;;;;13.48;2.25;;;11.60;99.90;;;;;;4999304;28;20069;-69
2023/01/01 08:09:51;;;;;;;19.67;2.55;;;11.60;99.90;;;;;;4970202;28;20038;-65
2023/01/01 08:12:16;;;;;;;19.13;2.58;;;11.60;99.90;;;;;;4985540;28;20053;-71
2023/01/01 08:14:42;;;;;;;14.00;2.60;;;11.60;99.90;;;;;;4988254;28;20050;-68
2023/01/01 08:17:07;;;;;;;14.30;2.42;;;11.60;99.90;;;;;;5001636;28;20077;-73
2023/01/01 08:19:33;;;;;;;18.23;2.50;;;11.60;99.90;;;;;;4984636;28;20044;-67
2023/01/01 08:21:58;;;;;;;10.80;2.45;;;11.60;99.90;;;;;;4981864;28;20053;-67
2023/01/01 08:24:24;;;;;;;17.63;2.35;;;11.50;99.90;;;;;;4986286;28;20498;-72
2023/01/01 08:26:50;;;;;;;13.30;2.55;;;11.50;99.90;;;;;;4984732;28;20042;-69
2023/01/01 08:29:15;;;;;;;14.90;2.65;;;11.50;99.90;;;;;;4985836;28;20107;-68
2023/01/01 08:31:41;;;;;;;14.82;2.55;;;11.50;99.90;;;;;;4985002;28;20140;-71
2023/01/01 08:34:07;;;;;;;12.82;2.60;;;11.50;99.90;;;;;;4986750;28;20038;-71
2023/01/01 08:36:33;;;;;;;14.00;2.08;;;11.50;99.90;;;;;;4982860;28;20034;-75
2023/01/01 08:38:59;;;;;;;13.18;2.17;;;11.40;99.90;;;;;;4999525;28;20121;-71
2023/01/01 08:41:24;;;;;;;14.73;2.33;;;11.40;99.90;;;;;;4987051;28;20160;-71
2023/01/01 08:43:50;;;;;;;16.45;2.55;;;11.40;99.90;;;;;;4985723;28;20046;-71
2023/01/01 08:46:15;;;;;;;12.57;2.40;;;11.40;99.90;;;;;;5005076;28;20045;-70
2023/01/01 08:48:41;;;;;;;13.10;2.63;;;11.40;99.90;;;;;;4986259;28;20041;-69
2023/01/01 08:51:09;;;;;;;15.25;2.60;;;11.40;99.90;;;;;;4984362;28;20080;-67
2023/01/01 08:53:35;;;;;;;19.33;2.15;;;11.40;99.90;;;;;;4985851;28;20112;-69
2023/01/01 08:56:05;;;;;;;16.80;2.60;;;11.40;99.90;;;;;;4985877;28;20034;-68
2023/01/01 08:58:31;;;;;;;16.17;2.80;;;11.40;99.90;;;;;;4983196;28;20392;-68
2023/01/01 09:00:58;;;;;;;17.42;2.38;;;11.30;99.90;;;;;;4984489;28;20030;-72
2023/01/01 09:03:24;;;;;;;19.13;2.35;;;11.30;99.90;;;;;;4986330;28;20049;-68
2023/01/01 09:05:53;;;;;;;15.63;2.50;;;11.30;99.90;;;;;;4990636;28;20037;-72
2023/01/01 09:08:19;;;;;;;17.92;2.17;;;11.30;99.90;;;;;;4987832;28;20469;-68
2023/01/01 09:10:45;;;;;;;17.02;2.22;;;11.30;99.90;;;;;;4988764;28;20485;-67
2023/01/01 09:13:13;;;;;;;20.48;2.53;;;11.30;99.90;;;;;;4985750;28;20049;-70
2023/01/01 09:15:40;;;;;;;22.05;2.60;;;11.30;99.90;;;;;;4984244;28;20085;-71
2023/01/01 09:18:06;;;;;;;19.20;2.40;;;11.30;99.90;;;;;;4991143;28;20038;-69
2023/01/01 09:20:31;;;;;;;17.90;2.25;;;11.30;99.90;;;;;;4989296;28;20030;-69
2023/01/01 09:22:57;;;;;;;16.58;2.67;;;11.30;99.90;;;;;;4986434;28;20128;-70
2023/01/01 09:25:22;;;;;;;16.42;2.35;;;11.30;99.90;;;;;;4986176;28;20289;-71
2023/01/01 09:27:48;;;;;;;12.55;2.13;;;11.30;99.90;;;;;;4985891;28;20256;-71
2023/01/01 09:30:14;;;;;;;14.10;2.65;;;11.30;99.90;;;;;;4989329;28;20492;-70
2023/01/01 09:32:40;;;;;;;12.52;2.13;;;11.30;99.90;;;;;;4983293;28;20038;-68
2023/01/01 09:35:05;;;;;;;10.50;1.85;;;11.30;99.90;;;;;;4987522;28;20034;-69
2023/01/01 09:37:33;;;;;;;20.50;2.33;;;11.30;99.90;;;;;;4988351;28;20044;-68
2023/01/01 09:39:58;;;;;;;14.80;2.08;;;11.30;99.90;;;;;;4994332;28;20129;-68
2023/01/01 09:42:46;;;;;;;12.27;1.70;;;11.30;99.90;;;;;;4985785;28;20050;-67
2023/01/01 09:45:27;;;;;;;14.43;2.13;;;11.30;99.90;;;;;;4988044;28;20129;-66
2023/01/01 09:47:57;;;;;;;17.08;2.08;;;11.40;99.90;;;;;;4985739;28;20033;-68
2023/01/01 09:50:35;;;;;;;14.35;1.92;;;11.40;99.90;;;;;;4987837;28;20129;-69
2023/01/01 09:53:16;;;;;;;14.88;2.03;;;11.40;99.90;;;;;;4981625;28;20046;-71
2023/01/01 09:55:55;;;;;;;18.17;2.70;;;11.40;99.90;;;;;;4985973;28;20321;-66
2023/01/01 09:58:24;;;;;;;15.73;2.05;;;11.40;99.90;;;;;;4985287;28;20050;-71
2023/01/01 10:00:53;;;;;;;14.77;2.03;;;11.40;99.90;;;;;;4986209;28;21917;-66
2023/01/01 10:03:25;;;;;;;11.93;2.50;;;11.40;99.90;;;;;;4984056;28;20041;-72
2023/01/01 10:06:19;;;;;;;16.53;2.40;;;11.40;99.90;;;;;;4983830;28;20045;-69
2023/01/01 10:08:57;;;;;;;19.48;2.47;;;11.40;99.90;;;;;;4984673;28;20296;-68
2023/01/01 10:11:25;;;;;;;22.52;2.67;;;11.40;99.90;;;;;;4985246;28;20050;-68
2023/01/01 10:13:52;;;;;;;14.52;2.40;;;11.40;99.90;;;;;;4989476;28;20072;-67
2023/01/01 10:16:41;;;;;;;15.25;2.22;;;11.30;99.90;;;;;;4997075;28;20049;-70
2023/01/01 10:19:36;;;;;;;15.30;2.17;;;11.30;99.90;;;;;;4991512;28;20333;-70
2023/01/01 10:22:09;;;;;;;13.45;2.08;;;11.30;99.90;;;;;;4990559;28;20050;-67
2023/01/01 10:24:42;;;;;;;12.07;2.25;;;11.30;99.90;;;;;;4994722;28;20065;-68
2023/01/01 10:27:24;;;;;;;17.25;1.88;;;11.40;99.90;;;;;;5010357;28;20044;-69
2023/01/01 10:29:51;;;;;;;25.08;2.40;;;11.50;99.90;;;;;;4995182;28;20049;-68
2023/01/01 10:32:31;;;;;;;16.80;2.00;;;11.60;99.90;;;;;;4991462;28;20057;-70
2023/01/01 10:34:57;;;;;;;22.73;3.15;;;11.60;99.90;;;;;;4987413;28;20472;-69
2023/01/01 10:37:24;;;;;;;23.52;2.47;;;11.70;99.90;;;;;;4988232;28;20053;-71
2023/01/01 10:39:50;;;;;;;22.35;2.78;;;11.70;99.90;;;;;;4989676;28;20041;-67
2023/01/01 10:42:16;;;;;;;16.50;2.13;;;11.70;99.90;;;;;;4987674;28;20359;-72
2023/01/01 10:44:42;;;;;;;17.73;2.30;;;11.70;99.90;;;;;;4987168;28;20045;-69
2023/01/01 10:47:27;;;;;;;20.15;2.17;;;11.70;99.90;;;;;;4987334;28;20042;-69
2023/01/01 10:49:53;;;;;;;19.35;2.80;;;11.80;99.90;;;;;;4986980;28;20055;-72
2023/01/01 10:52:40;;;;;;;27.45;2.30;;;11.80;99.90;;;;;;4986716;28;20133;-66
2023/01/01 10:55:18;;;;;;;20.85;2.50;;;11.80;99.90;;;;;;5002806;28;20045;-67
2023/01/01 10:57:43;;;;;;;19.83;2.33;;;11.80;99.90;;;;;;4987719;28;20093;-68
2023/01/01 11:00:11;;;;;;;17.35;2.28;;;11.80;99.90;;;;;;5004216;28;21849;-69
2023/01/01 11:02:36;;;;;;;21.42;3.40;;;11.90;99.90;;;;;;5005118;28;20497;-69
2023/01/01 11:05:35;;;;;;;18.83;2.60;;;11.80;99.90;;;;;;4989603;28;20041;-68
2023/01/01 11:08:00;;;;;;;22.70;2.35;;;11.90;99.90;;;;;;4981231;28;20065;-66
2023/01/01 11:10:28;;;;;;;21.20;2.42;;;11.90;99.90;;;;;;4967694;28;20498;-71
2023/01/01 11:12:54;;;;;;;20.25;2.97;;;12.00;99.90;;;;;;4984581;28;20116;-68
2023/01/01 11:15:40;;;;;;;16.70;2.83;;;12.00;99.90;;;;;;5003658;28;20049;-71
2023/01/01 11:18:12;;;;;;;20.52;2.17;;;12.00;99.90;;;;;;4983165;28;20045;-69
2023/01/01 11:20:39;;;;;;;20.88;3.30;;;12.00;99.90;;;;;;4985964;28;20064;-68
2023/01/01 11:23:37;;;;;;;14.13;2.08;;;12.00;99.90;;;;;;5000145;28;20042;-69
2023/01/01 11:26:03;;;;;;;14.88;2.15;;;12.00;99.90;;;;;;4984946;28;20049;-69
2023/01/01 11:28:30;;;;;;;18.52;2.60;;;12.10;99.90;;;;;;4987477;28;20139;-71
2023/01/01 11:31:19;;;;;;;21.95;2.40;;;12.10;99.90;;;;;;4988819;28;20037;-69
2023/01/01 11:33:55;;;;;;;21.20;3.08;;;12.10;99.90;;;;;;4993186;28;20037;-67
2023/01/01 11:36:31;;;;;;;15.95;2.65;;;12.10;99.90;;;;;;4992826;28;20042;-65
2023/01/01 11:39:26;;;;;;;24.02;2.55;;;12.10;99.90;;;;;;5001421;28;20046;-71
2023/01/01 11:41:54;;;;;;;19.50;2.80;;;12.10;99.90;;;;;;4968044;28;20390;-65
2023/01/01 11:44:40;;;;;;;17.52;2.15;;;12.20;99.90;;;;;;4991447;28;20061;-69
2023/01/01 11:47:19;;;;;;;24.23;3.35;;;12.20;99.90;;;;;;4994231;28;20042;-68
2023/01/01 11:49:51;;;;;;;20.20;2.75;;;12.20;99.90;;;;;;4993334;28;20397;-69
2023/01/01 11:52:39;;;;;;;21.85;3.15;;;12.20;99.90;;;;;;4993209;28;20399;-72
2023/01/01 11:55:25;;;;;;;18.98;3.20;;;12.20;99.90;;;;;;4992396;28;20096;-69
2023/01/01 11:58:07;;;;;;;20.35;2.40;;;12.20;99.90;;;;;;4997222;28;20054;-68
2023/01/01 12:00:35;;;;;;;16.30;2.70;;;12.40;99.90;;;;;;4988237;28;20133;-70
2023/01/01 12:03:16;;;;;;;19.77;2.97;;;12.40;99.90;;;;;;4992947;28;20507;-70
2023/01/01 12:06:17;;;;;;;20.58;2.47;;;12.40;99.90;;;;;;4993122;28;20050;-67
2023/01/01 12:08:55;;;;;;;15.23;2.65;;;12.30;99.90;;;;;;4973204;28;20140;-69
2023/01/01 12:11:55;;;;;;;13.80;2.30;;;12.20;99.90;;;;;;4990678;28;20087;-69
2023/01/01 12:14:35;;;;;;;19.30;2.50;;;12.20;99.90;;;;;;4988521;28;20042;-71
2023/01/01 12:17:35;;;;;;;21.05;3.70;;;12.10;99.90;;;;;;4988814;28;20042;-72
2023/01/01 12:20:00;;;;;;;14.88;2.40;;;12.10;99.90;;;;;;5008029;28;20050;-68
2023/01/01 12:22:27;;;;;;;20.23;2.55;;;12.10;99.90;;;;;;4990564;28;20049;-67
2023/01/01 12:24:53;;;;;;;17.17;2.63;;;12.10;99.90;;;;;;4990578;28;20030;-69
2023/01/01 12:27:47;;;;;;;22.23;2.67;;;12.10;99.90;;;;;;4990565;28;20038;-67
2023/01/01 12:30:27;;;;;;;15.05;2.47;;;12.10;99.90;;;;;;4992933;28;20042;-68
2023/01/01 12:32:58;;;;;;;20.80;3.03;;;12.00;99.90;;;;;;4990023;28;20050;-70
2023/01/01 12:36:02;;;;;;;21.20;3.25;;;12.00;99.90;;;;;;4992443;28;20404;-69
2023/01/01 12:38:45;;;;;;;15.93;2.38;;;12.10;99.90;;;;;;4993258;28;20176;-68
2023/01/01 12:41:39;;;;;;;16.30;2.60;;;12.10;99.90;;;;;;4986856;28;20049;-67
2023/01/01 12:44:25;;;;;;;19.38;2.90;;;12.10;99.90;;;;;;4983750;28;20139;-70
2023/01/01 12:47:18;;;;;;;23.90;3.20;;;12.00;99.90;;;;;;4993124;28;20097;-67
2023/01/01 12:50:00;;;;;;;26.73;3.55;;;12.00;99.90;;;;;;5009073;28;20041;-67
2023/01/01 12:52:49;;;;;;;16.40;2.40;;;12.00;99.90;;;;;;4989526;28;20104;-68
2023/01/01 12:55:50;;;;;;;24.08;3.17;;;12.00;99.90;;;;;;4987262;28;20045;-68
2023/01/01 12:58:28;;;;;;;16.65;3.10;;;12.00;99.90;;;;;;5007460;28;20123;-71
2023/01/01 13:01:07;;;;;;;18.17;3.25;;;11.90;99.90;;;;;;4989290;28;20594;-67
2023/01/01 13:03:41;;;;;;;19.02;3.88;;;11.90;99.90;;;;;;4973787;28;20058;-68
2023/01/01 13:06:11;;;;;;;20.58;3.13;;;11.90;99.90;;;;;;4988930;28;20041;-67